Time;durP1;ratioP1;P1;durP2;ratioP2;P2;SDS_P1;SDS_P2;PMS_P1;PMS_P2;Temp;Humidity;BMP_temperature;BMP_pressure;BME280_temperature;BME280_humidity;BME280_pressure;Samples;Min_cycle;Max_cycle;Signal;HPM_P1;HPM_P2
2024/04/07 00:01:57;;;;;;;8.02;2.78;;;17.40;99.90;;;;;;4996751;28;20188;-93
2024/04/07 00:04:22;;;;;;;6.43;2.20;;;17.40;99.90;;;;;;4996579;28;20057;-92
2024/04/07 00:06:48;;;;;;;6.40;2.72;;;17.60;99.90;;;;;;4995303;28;20023;-93
2024/04/07 00:09:15;;;;;;;11.52;2.95;;;18.00;99.90;;;;;;4996440;28;20544;-93
2024/04/07 00:11:40;;;;;;;11.98;2.95;;;17.90;99.90;;;;;;4996207;28;20034;-94
2024/04/07 00:14:06;;;;;;;9.32;2.47;;;17.50;99.90;;;;;;4997142;28;20360;-92
2024/04/07 00:16:31;;;;;;;13.80;2.75;;;17.60;99.90;;;;;;4996912;28;20037;-92
2024/04/07 00:18:57;;;;;;;15.23;2.85;;;17.50;99.90;;;;;;4988068;28;20030;-93
2024/04/07 00:21:23;;;;;;;10.85;2.92;;;17.90;99.90;;;;;;4982105;28;20026;-92
2024/04/07 00:23:49;;;;;;;8.70;2.30;;;17.20;99.90;;;;;;4988986;28;20021;-92
2024/04/07 00:26:15;;;;;;;13.20;2.90;;;17.30;99.90;;;;;;4996776;28;20022;-92
2024/04/07 00:28:40;;;;;;;3.92;1.90;;;17.20;99.90;;;;;;4997071;28;20034;-93
2024/04/07 00:31:07;;;;;;;7.90;2.20;;;17.70;99.90;;;;;;5006383;28;20056;-91
2024/04/07 00:33:33;;;;;;;10.68;2.58;;;17.10;99.90;;;;;;5004033;28;20048;-92
2024/04/07 00:36:00;;;;;;;10.20;2.20;;;17.20;99.90;;;;;;4996105;28;20054;-91
2024/04/07 00:38:26;;;;;;;9.48;2.00;;;17.20;99.90;;;;;;4996089;28;20018;-92
2024/04/07 00:40:56;;;;;;;4.85;1.70;;;17.40;99.90;;;;;;4996042;28;20050;-92
2024/04/07 00:43:23;;;;;;;4.60;1.75;;;17.20;99.90;;;;;;5006084;28;20037;-92
2024/04/07 00:45:49;;;;;;;4.55;2.00;;;17.20;99.90;;;;;;5019430;28;20046;-92
2024/04/07 00:48:17;;;;;;;7.45;1.73;;;17.20;99.90;;;;;;5006870;28;20031;-91
2024/04/07 00:50:44;;;;;;;5.97;1.73;;;17.10;99.90;;;;;;4995924;28;20030;-91
2024/04/07 00:53:12;;;;;;;7.68;1.92;;;17.10;99.90;;;;;;4996396;28;20117;-92
2024/04/07 00:55:39;;;;;;;4.55;1.70;;;17.10;99.90;;;;;;4986543;28;20030;-90
2024/04/07 00:58:05;;;;;;;2.90;1.15;;;17.00;99.90;;;;;;4994567;28;20479;-92
2024/04/07 01:00:31;;;;;;;6.00;1.38;;;16.90;99.90;;;;;;4996080;28;20042;-91
2024/04/07 01:02:57;;;;;;;2.47;1.23;;;16.80;99.90;;;;;;4995318;28;20045;-93
2024/04/07 01:05:23;;;;;;;8.18;1.65;;;16.70;99.90;;;;;;4995328;28;20058;-91
2024/04/07 01:07:49;;;;;;;2.70;1.17;;;16.60;99.90;;;;;;4995508;28;20082;-92
2024/04/07 01:10:14;;;;;;;4.40;1.85;;;16.70;99.90;;;;;;4994939;28;20046;-92
2024/04/07 01:12:51;;;;;;;4.88;1.48;;;16.50;99.90;;;;;;4995410;28;20394;-92
2024/04/07 01:15:16;;;;;;;4.72;1.67;;;16.50;99.90;;;;;;4995597;28;20087;-93
2024/04/07 01:17:42;;;;;;;5.35;1.33;;;16.40;99.90;;;;;;4995568;28;20486;-93
2024/04/07 01:20:10;;;;;;;2.97;1.35;;;16.40;99.90;;;;;;4994762;28;20367;-92
2024/04/07 01:22:36;;;;;;;4.97;1.42;;;16.30;99.90;;;;;;4978386;28;20067;-93
2024/04/07 01:25:01;;;;;;;6.57;1.48;;;16.30;99.90;;;;;;4984481;28;20023;-90
2024/04/07 01:27:27;;;;;;;3.15;1.60;;;16.20;99.90;;;;;;4995614;28;20390;-91
2024/04/07 01:29:52;;;;;;;4.55;1.65;;;16.20;99.90;;;;;;4994883;28;20101;-91
2024/04/07 01:32:18;;;;;;;4.32;1.65;;;16.10;99.90;;;;;;4994688;28;20105;-92
2024/04/07 01:34:44;;;;;;;3.30;1.20;;;16.10;99.90;;;;;;4994059;28;20033;-93
2024/04/07 01:37:09;;;;;;;2.08;1.17;;;16.00;99.90;;;;;;4994304;28;20034;-92
2024/04/07 01:39:35;;;;;;;3.13;1.50;;;16.00;99.90;;;;;;4994264;28;20030;-92
2024/04/07 01:42:00;;;;;;;6.03;1.10;;;16.00;99.90;;;;;;4994146;28;20050;-93
2024/04/07 01:44:26;;;;;;;3.88;1.50;;;15.90;99.90;;;;;;4987485;28;20482;-93
2024/04/07 01:46:51;;;;;;;3.63;1.25;;;15.90;99.90;;;;;;4975577;28;20467;-92
2024/04/07 01:49:17;;;;;;;3.15;1.50;;;15.90;99.90;;;;;;4975131;28;20527;-93
2024/04/07 01:51:42;;;;;;;5.43;1.83;;;15.80;99.90;;;;;;4974949;28;20483;-92
2024/04/07 01:54:08;;;;;;;7.03;1.80;;;16.40;99.90;;;;;;4975201;28;20759;-93
2024/04/07 01:56:34;;;;;;;3.40;1.75;;;15.80;99.90;;;;;;4976781;28;20031;-90
2024/04/07 01:58:59;;;;;;;5.32;1.85;;;15.80;99.90;;;;;;4992985;28;20042;-90
2024/04/07 02:01:25;;;;;;;10.38;2.05;;;15.80;99.90;;;;;;4992694;28;20038;-90
2024/04/07 02:03:51;;;;;;;5.50;1.70;;;15.80;99.90;;;;;;4993034;28;20030;-91
2024/04/07 02:06:16;;;;;;;7.55;2.00;;;15.80;99.90;;;;;;4993522;28;20045;-90
2024/04/07 02:08:42;;;;;;;3.33;1.67;;;16.40;99.90;;;;;;4994055;28;20109;-91
2024/04/07 02:11:07;;;;;;;9.30;2.28;;;15.80;99.90;;;;;;4993564;28;20158;-91
2024/04/07 02:13:33;;;;;;;5.25;1.90;;;15.80;99.90;;;;;;4993613;28;20089;-91
2024/04/07 02:16:01;;;;;;;7.88;1.70;;;15.80;99.90;;;;;;4983955;28;20042;-91
2024/04/07 02:18:27;;;;;;;4.60;2.20;;;15.80;99.90;;;;;;4993258;28;20026;-91
2024/04/07 02:20:53;;;;;;;4.15;1.33;;;15.70;99.90;;;;;;4980014;28;20615;-90
2024/04/07 02:23:19;;;;;;;5.07;1.65;;;15.70;99.90;;;;;;4976453;28;20031;-91
2024/04/07 02:25:46;;;;;;;2.72;1.55;;;16.30;99.90;;;;;;5002547;28;20018;-93
2024/04/07 02:28:12;;;;;;;10.32;2.00;;;15.70;99.90;;;;;;5016603;28;20018;-90
2024/04/07 02:30:38;;;;;;;3.53;1.60;;;15.60;99.90;;;;;;5004816;28;20681;-91
2024/04/07 02:33:04;;;;;;;3.63;1.30;;;15.60;99.90;;;;;;4987559;28;20027;-91
2024/04/07 02:35:31;;;;;;;4.25;1.92;;;15.60;99.90;;;;;;4978291;28;20042;-90
2024/04/07 02:37:57;;;;;;;1.20;0.90;;;15.80;99.90;;;;;;4979248;28;20491;-91
2024/04/07 02:40:23;;;;;;;4.57;0.95;;;15.60;99.90;;;;;;4978918;28;20190;-91
2024/04/07 02:42:52;;;;;;;6.38;1.42;;;15.60;99.90;;;;;;4990928;28;20042;-91
2024/04/07 02:48:05;;;;;;;2.17;1.00;;;15.60;99.90;;;;;;4998485;28;20036;-92
2024/04/07 02:50:32;;;;;;;1.40;1.08;;;15.60;99.90;;;;;;4998134;28;20018;-91
2024/04/07 02:52:57;;;;;;;3.17;1.30;;;15.60;99.90;;;;;;4998190;28;20036;-92
2024/04/07 02:55:23;;;;;;;2.55;1.00;;;15.60;99.90;;;;;;4995431;28;20027;-91
2024/04/07 02:57:48;;;;;;;2.60;1.20;;;15.70;99.90;;;;;;4998256;28;20101;-90
2024/04/07 03:00:15;;;;;;;3.88;1.58;;;16.40;99.90;;;;;;4997515;28;20019;-91
2024/04/07 03:02:42;;;;;;;3.08;1.20;;;15.60;99.90;;;;;;4998213;28;20042;-90
2024/04/07 03:05:08;;;;;;;2.58;1.30;;;15.60;99.90;;;;;;4997743;28;20023;-89
2024/04/07 03:07:51;;;;;;;4.25;1.42;;;15.60;99.90;;;;;;4997763;28;20037;-92
2024/04/07 03:10:18;;;;;;;4.32;1.10;;;15.50;99.90;;;;;;4995292;28;20027;-90
2024/04/07 03:12:44;;;;;;;8.43;1.48;;;15.50;99.90;;;;;;4997529;28;20030;-92
2024/04/07 03:15:10;;;;;;;4.18;1.02;;;15.90;99.90;;;;;;4997695;28;20026;-91
2024/04/07 03:17:35;;;;;;;2.22;1.00;;;15.50;99.90;;;;;;4997579;28;20045;-91
2024/04/07 03:20:16;;;;;;;2.83;0.75;;;15.50;99.90;;;;;;4997174;28;20077;-90
2024/04/07 03:22:42;;;;;;;4.05;1.20;;;16.60;99.90;;;;;;4997129;28;20035;-90
2024/04/07 03:25:08;;;;;;;3.50;0.88;;;16.40;99.90;;;;;;4997262;28;20374;-90
2024/04/07 03:27:53;;;;;;;4.10;1.10;;;16.40;99.90;;;;;;4997368;28;20054;-93
2024/04/07 03:30:19;;;;;;;2.03;0.65;;;15.60;99.90;;;;;;4996908;28;20023;-91
2024/04/07 03:32:45;;;;;;;1.30;0.80;;;16.70;99.90;;;;;;4996405;28;20053;-91
2024/04/07 03:35:18;;;;;;;3.38;0.80;;;15.60;99.90;;;;;;4998503;28;20034;-91
2024/04/07 03:37:43;;;;;;;2.75;1.08;;;15.60;99.90;;;;;;4996886;28;20019;-90
2024/04/07 03:40:09;;;;;;;2.15;0.80;;;15.50;99.90;;;;;;4977132;28;20085;-90
2024/04/07 03:42:41;;;;;;;4.80;1.25;;;15.60;99.90;;;;;;4977273;28;20043;-92
2024/04/07 03:45:09;;;;;;;1.15;0.60;;;16.50;99.90;;;;;;4977015;28;20023;-91
2024/04/07 03:47:35;;;;;;;2.58;0.65;;;15.80;99.90;;;;;;4977152;28;20113;-92
2024/04/07 03:50:07;;;;;;;4.15;1.02;;;15.60;99.90;;;;;;4991449;28;20022;-91
2024/04/07 03:52:33;;;;;;;0.73;0.50;;;15.60;99.90;;;;;;4994187;28;20026;-91
2024/04/07 03:54:59;;;;;;;3.88;1.35;;;16.40;99.90;;;;;;4996423;28;20022;-91
2024/04/07 03:57:52;;;;;;;1.20;0.70;;;16.60;99.90;;;;;;4997086;28;20065;-91
2024/04/07 04:00:18;;;;;;;1.75;1.05;;;15.60;99.90;;;;;;5007100;28;20046;-91
2024/04/07 04:02:45;;;;;;;2.58;0.60;;;15.60;99.90;;;;;;5009175;28;20065;-92
2024/04/07 04:05:10;;;;;;;2.80;0.80;;;16.50;99.90;;;;;;5001149;28;20022;-92
2024/04/07 04:07:36;;;;;;;4.30;0.98;;;16.20;99.90;;;;;;5012665;28;20030;-91
2024/04/07 04:10:01;;;;;;;1.20;0.65;;;15.70;99.90;;;;;;5019919;28;20030;-91
2024/04/07 04:12:28;;;;;;;3.88;0.68;;;15.70;99.90;;;;;;5007025;28;20026;-91
2024/04/07 04:14:55;;;;;;;1.83;0.90;;;16.50;99.90;;;;;;4996449;28;20029;-92
2024/04/07 04:17:22;;;;;;;4.10;1.10;;;15.60;99.90;;;;;;4996947;28;20035;-91
2024/04/07 04:19:48;;;;;;;1.75;0.90;;;15.60;99.90;;;;;;4996381;28;20466;-93
2024/04/07 04:22:13;;;;;;;1.08;0.88;;;15.60;99.90;;;;;;4996591;28;20619;-93
2024/04/07 04:24:39;;;;;;;3.40;1.00;;;15.60;99.90;;;;;;4989396;28;20097;-93
2024/04/07 04:27:05;;;;;;;1.05;0.75;;;15.70;99.90;;;;;;4996590;28;20614;-93
2024/04/07 04:29:35;;;;;;;1.23;0.60;;;15.60;99.90;;;;;;4996920;28;20038;-92
2024/04/07 04:32:01;;;;;;;1.33;0.65;;;16.10;99.90;;;;;;4997164;28;20092;-92
2024/04/07 04:34:28;;;;;;;1.50;0.65;;;15.60;99.90;;;;;;4996450;28;20521;-92
2024/04/07 04:36:53;;;;;;;0.90;0.50;;;15.70;99.90;;;;;;4992330;28;20031;-92
2024/04/07 04:39:19;;;;;;;1.13;0.70;;;15.70;99.90;;;;;;4993777;28;20026;-93
2024/04/07 04:41:46;;;;;;;4.20;0.93;;;15.60;99.90;;;;;;4976232;28;20059;-92
2024/04/07 04:44:13;;;;;;;2.75;0.57;;;15.70;99.90;;;;;;4991506;28;20537;-91
2024/04/07 04:46:42;;;;;;;4.60;0.70;;;15.70;99.90;;;;;;4993022;28;20027;-91
2024/04/07 04:49:09;;;;;;;2.67;0.50;;;15.70;99.90;;;;;;4994991;28;20037;-92
2024/04/07 04:51:35;;;;;;;2.75;0.88;;;15.70;99.90;;;;;;4995551;28;20394;-91
2024/04/07 04:54:01;;;;;;;1.83;0.50;;;16.50;99.90;;;;;;4995522;28;20134;-94
2024/04/07 04:56:26;;;;;;;3.47;0.70;;;15.60;99.90;;;;;;4978494;28;20022;-92
2024/04/07 04:58:53;;;;;;;3.90;0.93;;;15.60;99.90;;;;;;4976245;28;20497;-92
2024/04/07 05:01:19;;;;;;;1.60;0.50;;;15.80;99.90;;;;;;4993337;28;20050;-94
2024/04/07 05:03:45;;;;;;;2.58;1.00;;;16.20;99.90;;;;;;4992006;28;20073;-91
2024/04/07 05:06:13;;;;;;;1.10;0.75;;;15.60;99.90;;;;;;4976681;28;20023;-94
2024/04/07 05:08:39;;;;;;;1.45;0.65;;;15.60;99.90;;;;;;4987415;28;20061;-93
2024/04/07 05:11:05;;;;;;;1.40;0.50;;;15.60;99.90;;;;;;4995578;28;20026;-93
2024/04/07 05:13:32;;;;;;;2.28;0.73;;;15.50;99.90;;;;;;4979108;28;20027;-85
2024/04/07 05:15:58;;;;;;;2.92;1.10;;;15.60;99.90;;;;;;4993575;28;20026;-95
2024/04/07 05:18:24;;;;;;;2.00;0.93;;;15.50;99.90;;;;;;4982534;28;20023;-93
2024/04/07 05:20:50;;;;;;;4.10;0.90;;;16.00;99.90;;;;;;4979201;28;20039;-93
2024/04/07 05:23:15;;;;;;;2.80;0.85;;;15.60;99.90;;;;;;4988884;28;20157;-92
2024/04/07 05:25:42;;;;;;;0.98;0.60;;;16.50;99.90;;;;;;4980903;28;20038;-91
2024/04/07 05:28:07;;;;;;;3.40;0.88;;;16.00;99.90;;;;;;4992686;28;20054;-91
2024/04/07 05:30:36;;;;;;;2.65;0.70;;;15.50;99.90;;;;;;4994365;28;20026;-92
2024/04/07 05:33:01;;;;;;;1.02;0.50;;;15.50;99.90;;;;;;4992969;28;20030;-92
2024/04/07 05:35:27;;;;;;;0.70;0.50;;;15.50;99.90;;;;;;4994573;28;20029;-91
2024/04/07 05:37:52;;;;;;;0.85;0.52;;;15.70;99.90;;;;;;4993587;28;20029;-92
2024/04/07 05:40:18;;;;;;;1.95;1.00;;;15.40;99.90;;;;;;4991712;28;20158;-91
2024/04/07 05:42:47;;;;;;;1.58;0.75;;;15.40;99.90;;;;;;4981064;28;20097;-94
2024/04/07 05:45:12;;;;;;;1.92;0.85;;;15.40;99.90;;;;;;4985130;28;20081;-93
2024/04/07 05:47:38;;;;;;;2.47;0.82;;;15.40;99.90;;;;;;4986255;28;20486;-92
2024/04/07 05:50:04;;;;;;;4.57;1.02;;;15.40;99.90;;;;;;5009379;28;20027;-92
2024/04/07 05:52:29;;;;;;;3.85;1.00;;;15.40;99.90;;;;;;5010921;28;20083;-91
2024/04/07 05:54:55;;;;;;;2.22;0.73;;;15.40;99.90;;;;;;4983241;28;20037;-92
2024/04/07 05:57:21;;;;;;;4.55;0.77;;;15.40;99.90;;;;;;4995111;28;20088;-92
2024/04/07 05:59:47;;;;;;;3.63;0.95;;;15.40;99.90;;;;;;4992089;28;20572;-92
2024/04/07 06:02:13;;;;;;;3.83;0.90;;;15.40;99.90;;;;;;4983771;28;20062;-93
2024/04/07 06:04:39;;;;;;;2.78;1.00;;;15.50;99.90;;;;;;4992093;28;20042;-92
2024/04/07 06:07:05;;;;;;;3.53;1.00;;;15.40;99.90;;;;;;4989023;28;20023;-93
2024/04/07 06:09:31;;;;;;;4.97;1.13;;;15.40;99.90;;;;;;4988930;28;20035;-93
2024/04/07 06:11:56;;;;;;;4.07;0.93;;;15.80;99.90;;;;;;4994130;28;20019;-93
2024/04/07 06:14:33;;;;;;;2.53;0.82;;;15.40;99.90;;;;;;4985499;28;20023;-93
2024/04/07 06:16:59;;;;;;;1.48;0.70;;;15.40;99.90;;;;;;4984598;28;20046;-92
2024/04/07 06:19:31;;;;;;;3.72;0.90;;;15.40;99.90;;;;;;4991726;28;20026;-94
2024/04/07 06:21:56;;;;;;;3.35;1.05;;;15.40;99.90;;;;;;4986396;28;20506;-92
2024/04/07 06:24:22;;;;;;;4.10;1.10;;;16.00;99.90;;;;;;4988721;28;20526;-93
2024/04/07 06:26:47;;;;;;;2.90;0.95;;;15.40;99.90;;;;;;4988345;28;20541;-96
2024/04/07 06:29:13;;;;;;;2.63;0.90;;;15.40;99.90;;;;;;4992084;28;20480;-91
2024/04/07 06:31:39;;;;;;;4.65;1.05;;;15.40;99.90;;;;;;4987681;28;20037;-93
2024/04/07 06:34:05;;;;;;;6.40;1.67;;;15.70;99.90;;;;;;4988288;28;20394;-93
2024/04/07 06:36:30;;;;;;;1.35;0.70;;;15.40;99.90;;;;;;4983315;28;20454;-94
2024/04/07 06:38:56;;;;;;;2.42;0.95;;;15.40;99.90;;;;;;4991943;28;20040;-92
2024/04/07 06:41:21;;;;;;;2.55;1.17;;;15.70;99.90;;;;;;4987686;28;20046;-92
2024/04/07 06:43:47;;;;;;;2.40;1.00;;;15.30;99.90;;;;;;4988936;28;20372;-94
2024/04/07 06:46:12;;;;;;;3.25;1.20;;;15.40;99.90;;;;;;4990966;28;20030;-93
2024/04/07 06:48:38;;;;;;;3.90;1.45;;;16.30;99.90;;;;;;4979829;28;20035;-92
2024/04/07 06:51:03;;;;;;;6.85;1.15;;;15.50;99.90;;;;;;4983520;28;20046;-93
2024/04/07 06:53:29;;;;;;;2.85;1.08;;;15.40;99.90;;;;;;4981397;28;20027;-92
2024/04/07 06:55:54;;;;;;;3.05;1.23;;;15.50;99.90;;;;;;4990182;28;20550;-94
2024/04/07 06:58:20;;;;;;;3.33;1.13;;;15.50;99.90;;;;;;4988580;28;20479;-94
2024/04/07 07:00:46;;;;;;;6.38;1.23;;;16.30;99.90;;;;;;4988538;28;20027;-92
2024/04/07 07:03:12;;;;;;;2.90;1.00;;;15.50;99.90;;;;;;4989180;28;20038;-89
2024/04/07 07:05:37;;;;;;;3.92;1.40;;;15.50;99.90;;;;;;4979553;28;20033;-88
2024/04/07 07:08:03;;;;;;;4.43;1.23;;;15.60;99.90;;;;;;4983277;28;20192;-92
2024/04/07 07:10:29;;;;;;;2.88;1.20;;;15.60;99.90;;;;;;4984764;28;20058;-92
2024/04/07 07:12:54;;;;;;;3.08;1.20;;;15.60;99.90;;;;;;4987377;28;20028;-92
2024/04/07 07:15:20;;;;;;;2.88;1.38;;;15.60;99.90;;;;;;4987925;28;20842;-95
2024/04/07 07:17:45;;;;;;;4.15;1.23;;;15.80;99.90;;;;;;4990716;28;20071;-95
2024/04/07 07:23:05;;;;;;;4.78;2.08;;;15.70;99.90;;;;;;5344576;23;20057;-96
2024/04/07 07:25:31;;;;;;;3.80;1.70;;;15.40;99.90;;;;;;5007251;28;20034;-94
2024/04/07 07:27:57;;;;;;;2.88;1.15;;;16.70;99.90;;;;;;5021756;28;20110;-94
2024/04/07 07:30:32;;;;;;;4.78;1.30;;;16.10;99.90;;;;;;5022585;28;20030;-93
2024/04/07 07:32:57;;;;;;;7.13;1.23;;;15.60;99.90;;;;;;5033637;28;20011;-96
2024/04/07 07:35:52;;;;;;;2.63;1.23;;;15.50;99.90;;;;;;5210242;23;20103;-95
2024/04/07 07:38:18;;;;;;;4.75;2.00;;;15.60;99.90;;;;;;5006607;28;20045;-93
2024/04/07 07:46:01;;;;;;;9.77;1.45;;;15.80;99.90;;;;;;5743626;23;20172;-95
2024/04/07 07:48:27;;;;;;;6.13;1.27;;;15.80;99.90;;;;;;5026489;28;20038;-93
2024/04/07 07:50:52;;;;;;;4.10;1.40;;;15.80;99.90;;;;;;5011096;28;20374;-94
2024/04/07 07:53:20;;;;;;;6.07;1.70;;;15.80;99.90;;;;;;5009711;28;20030;-94
2024/04/07 07:55:46;;;;;;;4.25;1.58;;;15.80;99.90;;;;;;5015369;28;20034;-92
2024/04/07 07:58:12;;;;;;;4.50;1.50;;;15.80;99.90;;;;;;5017006;28;20045;-90
2024/04/07 08:03:20;;;;;;;3.38;1.70;;;15.90;99.90;;;;;;5136820;23;20391;-95
2024/04/07 08:05:46;;;;;;;2.55;1.33;;;16.50;99.90;;;;;;5010740;28;20030;-94
2024/04/07 08:08:12;;;;;;;2.17;1.10;;;15.60;99.90;;;;;;5043304;23;20088;-90
2024/04/07 08:10:37;;;;;;;5.97;1.42;;;16.40;99.90;;;;;;5737038;23;20032;-93
2024/04/07 08:13:15;;;;;;;9.32;1.42;;;16.80;99.90;;;;;;5006012;28;20045;-95
2024/04/07 08:15:43;;;;;;;6.30;1.70;;;16.30;99.90;;;;;;5001910;28;20033;-93
2024/04/07 08:18:09;;;;;;;3.88;1.38;;;17.30;99.90;;;;;;5008178;28;20041;-93
2024/04/07 08:20:36;;;;;;;5.68;1.00;;;16.70;99.90;;;;;;4996982;28;20038;-94
2024/04/07 08:23:15;;;;;;;5.13;1.60;;;16.00;99.90;;;;;;5003554;28;20057;-96
2024/04/07 08:25:41;;;;;;;5.05;1.38;;;16.00;99.90;;;;;;5008231;28;20026;-95
2024/04/07 08:28:07;;;;;;;3.65;1.05;;;16.40;99.90;;;;;;5007193;28;20037;-93
2024/04/07 08:30:33;;;;;;;5.40;1.13;;;16.10;99.90;;;;;;4993331;28;20425;-94
2024/04/07 08:38:09;;;;;;;6.47;1.42;;;16.20;99.90;;;;;;5488217;23;20065;-94
2024/04/07 08:40:46;;;;;;;5.63;1.60;;;17.00;99.90;;;;;;5008188;28;20030;-95
2024/04/07 08:46:02;;;;;;;4.53;1.60;;;16.20;99.90;;;;;;5791290;23;20054;-93
2024/04/07 08:48:50;;;;;;;6.18;1.77;;;17.00;99.90;;;;;;5025716;28;20044;-95
2024/04/07 08:51:17;;;;;;;2.75;1.33;;;16.20;99.90;;;;;;5029784;28;20022;-96
2024/04/07 08:56:19;;;;;;;5.87;1.50;;;16.30;99.90;;;;;;6061271;23;20017;-92
2024/04/07 08:59:06;;;;;;;6.70;1.95;;;17.20;99.90;;;;;;5083398;23;20050;-94
2024/04/07 09:04:07;;;;;;;4.78;1.33;;;16.40;99.90;;;;;;5610310;23;20081;-93
2024/04/07 09:09:08;;;;;;;9.13;2.38;;;16.40;99.90;;;;;;5524553;23;20275;-94
2024/04/07 09:11:37;;;;;;;4.25;1.35;;;16.90;99.90;;;;;;5004321;28;20034;-92
2024/04/07 09:14:03;;;;;;;3.60;1.30;;;16.50;99.90;;;;;;5021709;28;20069;-93
2024/04/07 09:16:28;;;;;;;3.97;1.20;;;16.50;99.90;;;;;;5020444;28;20034;-92
2024/04/07 09:18:54;;;;;;;4.28;1.55;;;16.50;99.90;;;;;;5118511;23;20057;-94
2024/04/07 09:21:43;;;;;;;4.35;1.48;;;16.90;99.90;;;;;;5012367;28;20113;-95
2024/04/07 09:24:10;;;;;;;2.85;1.20;;;16.60;99.90;;;;;;4998258;28;20425;-94
2024/04/07 09:26:36;;;;;;;3.17;1.08;;;16.60;99.90;;;;;;5010496;28;20056;-93
2024/04/07 09:29:04;;;;;;;5.93;1.20;;;16.60;99.90;;;;;;5285113;23;20412;-95
2024/04/07 09:31:36;;;;;;;4.43;1.20;;;16.60;99.90;;;;;;5012423;28;20034;-93
2024/04/07 09:34:02;;;;;;;6.60;1.70;;;17.40;99.90;;;;;;5000065;28;20510;-95
2024/04/07 09:36:27;;;;;;;2.53;1.05;;;17.50;99.90;;;;;;5010408;28;20108;-95
2024/04/07 09:38:53;;;;;;;4.85;1.02;;;16.90;99.90;;;;;;5007467;28;20060;-96
2024/04/07 09:44:04;;;;;;;2.38;1.35;;;16.80;99.90;;;;;;4992553;28;20059;-91
2024/04/07 09:46:37;;;;;;;2.90;1.15;;;17.30;99.90;;;;;;4989017;28;20675;-93
2024/04/07 09:49:09;;;;;;;4.97;0.95;;;16.80;99.90;;;;;;4992301;28;20030;-92
2024/04/07 09:52:04;;;;;;;3.78;1.30;;;16.80;99.90;;;;;;4987063;28;20027;-94
2024/04/07 09:54:37;;;;;;;3.40;0.95;;;16.90;99.90;;;;;;4982032;28;20035;-90
2024/04/07 09:57:05;;;;;;;3.53;1.05;;;17.10;99.90;;;;;;4990369;28;20481;-89
2024/04/07 09:59:30;;;;;;;2.40;0.82;;;16.90;99.90;;;;;;4984864;28;20103;-89
2024/04/07 10:01:57;;;;;;;1.50;0.90;;;17.00;99.90;;;;;;4991227;28;20060;-92
2024/04/07 10:04:25;;;;;;;1.13;0.90;;;17.00;99.90;;;;;;4992444;28;20030;-93
2024/04/07 10:06:52;;;;;;;4.30;1.20;;;17.10;99.90;;;;;;4988279;28;20029;-90
2024/04/07 10:09:18;;;;;;;1.50;0.90;;;17.10;99.90;;;;;;4989793;28;20501;-94
2024/04/07 10:11:48;;;;;;;4.95;1.13;;;17.60;99.90;;;;;;4974832;28;20034;-93
2024/04/07 10:14:17;;;;;;;;;;;17.30;99.90;;;;;;4981889;28;20129;-93
2024/04/07 10:16:44;;;;;;;4.90;1.58;;;17.20;99.90;;;;;;4987676;28;19906;-94
2024/04/07 10:19:09;;;;;;;3.17;1.10;;;17.30;99.90;;;;;;4989353;28;20023;-94
2024/04/07 10:21:35;;;;;;;2.60;1.20;;;17.20;99.90;;;;;;4991122;28;20048;-93
2024/04/07 10:24:01;;;;;;;2.58;1.02;;;17.20;99.90;;;;;;4986010;28;20125;-92
2024/04/07 10:26:28;;;;;;;2.85;0.77;;;17.20;99.90;;;;;;4988117;28;20579;-91
2024/04/07 10:28:58;;;;;;;4.32;1.23;;;17.20;99.90;;;;;;4984288;28;20109;-93
2024/04/07 10:31:25;;;;;;;3.80;0.93;;;17.20;99.90;;;;;;4986389;28;20034;-87
2024/04/07 10:33:51;;;;;;;5.65;1.30;;;17.20;99.90;;;;;;4981451;28;20023;-93
2024/04/07 10:36:20;;;;;;;7.30;1.25;;;17.30;99.90;;;;;;4980397;28;20118;-95
2024/04/07 10:38:48;;;;;;;2.60;1.02;;;17.30;99.90;;;;;;4988912;28;20053;-95
2024/04/07 10:41:21;;;;;;;2.35;1.17;;;17.30;99.90;;;;;;4986329;28;20034;-90
2024/04/07 10:43:47;;;;;;;4.75;1.38;;;17.80;99.90;;;;;;4984014;28;20069;-92
2024/04/07 10:46:12;;;;;;;3.20;1.20;;;17.40;99.90;;;;;;4986712;28;20487;-93
2024/04/07 10:48:38;;;;;;;3.08;0.88;;;17.40;99.90;;;;;;4991326;28;20085;-93
2024/04/07 10:51:06;;;;;;;4.00;1.40;;;17.40;99.90;;;;;;4995207;28;20037;-92
2024/04/07 10:53:32;;;;;;;3.33;1.00;;;17.40;99.90;;;;;;4989226;28;20058;-94
2024/04/07 10:55:57;;;;;;;1.48;0.65;;;17.40;99.90;;;;;;4999783;28;20011;-93
2024/04/07 10:58:23;;;;;;;2.13;0.90;;;17.40;99.90;;;;;;5000339;28;20081;-93
2024/04/07 11:00:49;;;;;;;4.47;1.00;;;17.60;99.90;;;;;;4990370;28;20057;-94
2024/04/07 11:03:15;;;;;;;2.78;0.60;;;17.40;99.90;;;;;;4992411;28;20867;-93
2024/04/07 11:05:41;;;;;;;11.00;1.33;;;17.40;99.90;;;;;;4984147;28;20023;-92
2024/04/07 11:08:10;;;;;;;3.25;0.77;;;17.50;99.90;;;;;;4994033;28;20130;-92
2024/04/07 11:10:39;;;;;;;2.38;0.93;;;17.50;99.90;;;;;;4997782;28;20478;-91
2024/04/07 11:13:08;;;;;;;3.10;1.15;;;17.50;99.90;;;;;;4994098;28;20474;-89
2024/04/07 11:15:34;;;;;;;2.33;0.93;;;17.50;99.90;;;;;;4982073;28;20038;-93
2024/04/07 11:17:59;;;;;;;2.50;0.80;;;17.50;99.90;;;;;;5003066;28;20049;-87
2024/04/07 11:20:26;;;;;;;2.05;0.70;;;17.50;99.90;;;;;;4998433;28;20019;-92
2024/04/07 11:22:52;;;;;;;6.60;1.23;;;18.00;99.90;;;;;;4993268;28;20074;-90
2024/04/07 11:25:20;;;;;;;4.15;0.68;;;18.20;99.90;;;;;;4997160;28;20027;-92
2024/04/07 11:27:46;;;;;;;3.55;1.00;;;17.60;99.90;;;;;;4999013;28;20062;-95
2024/04/07 11:30:11;;;;;;;6.38;1.15;;;17.70;99.90;;;;;;4998073;28;20030;-93
2024/04/07 11:32:37;;;;;;;6.13;1.20;;;18.00;99.90;;;;;;5000110;28;20096;-93
2024/04/07 11:35:05;;;;;;;3.40;0.80;;;17.80;99.90;;;;;;4998621;28;20036;-93
2024/04/07 11:37:30;;;;;;;1.77;0.85;;;17.80;99.90;;;;;;4993212;28;20077;-93
2024/04/07 11:39:56;;;;;;;1.20;0.73;;;18.50;99.90;;;;;;4981731;28;20040;-94
2024/04/07 11:42:23;;;;;;;2.28;0.70;;;18.50;99.90;;;;;;4987109;28;20101;-93
2024/04/07 11:44:48;;;;;;;2.33;0.77;;;17.90;99.90;;;;;;4993213;28;20022;-90
2024/04/07 11:47:15;;;;;;;5.10;1.05;;;18.00;99.90;;;;;;4996535;28;20049;-93
2024/04/07 11:49:41;;;;;;;3.65;0.98;;;18.00;99.90;;;;;;4978977;28;20026;-92
2024/04/07 11:52:10;;;;;;;3.08;0.98;;;18.00;99.90;;;;;;4989725;28;20037;-96
2024/04/07 11:54:37;;;;;;;1.80;0.88;;;18.10;99.90;;;;;;4998187;28;20022;-92
2024/04/07 11:57:03;;;;;;;3.97;0.70;;;18.20;99.90;;;;;;4999423;28;20034;-93
2024/04/07 11:59:29;;;;;;;3.22;1.05;;;18.20;99.90;;;;;;5001722;28;20038;-92
2024/04/07 12:01:54;;;;;;;3.10;1.20;;;18.20;99.90;;;;;;4999144;28;20077;-95
2024/04/07 12:04:20;;;;;;;3.05;0.70;;;18.10;99.90;;;;;;4999541;28;20125;-94
2024/04/07 12:06:46;;;;;;;2.53;0.93;;;18.20;99.90;;;;;;4999425;28;20023;-93
2024/04/07 12:09:11;;;;;;;1.73;0.63;;;18.40;99.90;;;;;;5000900;28;20030;-95
2024/04/07 12:11:37;;;;;;;2.45;1.05;;;18.50;99.90;;;;;;4998507;28;20049;-96
2024/04/07 12:14:03;;;;;;;1.90;0.65;;;19.00;99.90;;;;;;4999658;28;20022;-95
2024/04/07 12:16:29;;;;;;;3.15;0.77;;;18.50;99.90;;;;;;4998991;28;20073;-94
2024/04/07 12:18:55;;;;;;;3.85;0.85;;;18.60;99.90;;;;;;4997860;28;20026;-94
2024/04/07 12:21:20;;;;;;;1.65;0.52;;;18.90;99.90;;;;;;4999466;28;20220;-95
2024/04/07 12:23:46;;;;;;;1.70;0.88;;;18.50;99.90;;;;;;4999024;28;20122;-94
2024/04/07 12:26:13;;;;;;;1.25;0.65;;;19.20;99.90;;;;;;4998456;28;20034;-95
2024/04/07 12:28:38;;;;;;;1.15;0.60;;;19.20;99.90;;;;;;4997304;28;20029;-94
2024/04/07 12:31:04;;;;;;;2.83;0.80;;;18.80;99.90;;;;;;4997564;28;20026;-93
2024/04/07 12:33:29;;;;;;;4.82;1.02;;;19.00;99.90;;;;;;4998416;28;20027;-96
2024/04/07 12:35:55;;;;;;;2.08;1.00;;;18.70;99.90;;;;;;5016191;28;20030;-94
2024/04/07 12:38:21;;;;;;;1.33;0.80;;;18.70;99.90;;;;;;5016808;28;20086;-95
2024/04/07 12:40:46;;;;;;;4.55;0.90;;;18.80;99.90;;;;;;5001185;28;20023;-95
2024/04/07 12:43:12;;;;;;;3.30;0.77;;;19.40;99.90;;;;;;4997783;28;20074;-93
2024/04/07 12:45:38;;;;;;;1.73;0.60;;;18.90;99.90;;;;;;4997274;28;20086;-96
2024/04/07 12:48:19;;;;;;;2.15;0.80;;;18.80;99.90;;;;;;4997656;28;20049;-93
2024/04/07 12:50:45;;;;;;;2.35;0.90;;;18.80;99.90;;;;;;4998237;28;20022;-95
2024/04/07 12:53:11;;;;;;;1.88;1.05;;;19.60;99.90;;;;;;4998295;28;20110;-94
2024/04/07 12:55:37;;;;;;;2.30;0.85;;;19.10;99.90;;;;;;4997134;28;20113;-94
2024/04/07 12:58:03;;;;;;;3.95;0.70;;;19.60;99.30;;;;;;4997711;28;20050;-96
2024/04/07 13:00:29;;;;;;;2.58;0.75;;;19.00;99.50;;;;;;4996816;28;20792;-94
2024/04/07 13:02:55;;;;;;;1.70;0.88;;;19.20;99.90;;;;;;4976720;28;20034;-94
2024/04/07 13:05:20;;;;;;;1.75;0.65;;;19.10;99.90;;;;;;4997180;28;20030;-94
2024/04/07 13:07:46;;;;;;;1.45;0.80;;;19.40;99.90;;;;;;4997033;28;20094;-94
2024/04/07 13:10:13;;;;;;;2.42;0.88;;;19.30;99.90;;;;;;4996159;28;20037;-95
2024/04/07 13:12:39;;;;;;;3.55;0.70;;;19.50;99.30;;;;;;4996961;28;20106;-95
2024/04/07 13:15:06;;;;;;;1.95;0.60;;;19.40;99.60;;;;;;4996051;28;20026;-94
2024/04/07 13:17:32;;;;;;;1.65;0.70;;;19.40;99.90;;;;;;4996628;28;20041;-94